Time;durP1;ratioP1;P1;durP2;ratioP2;P2;SDS_P1;SDS_P2;PMS_P1;PMS_P2;Temp;Humidity;BMP_temperature;BMP_pressure;BME280_temperature;BME280_humidity;BME280_pressure;Samples;Min_cycle;Max_cycle;Signal;HPM_P1;HPM_P2
2023/04/07 00:02:38;;;;;;;16.77;7.50;;;21.90;37.10;;;;;;6127625;28;83457;-64
2023/04/07 00:05:38;;;;;;;9.80;7.28;;;21.90;37.30;;;;;;6128496;28;80020;-64
2023/04/07 00:08:39;;;;;;;9.82;6.78;;;21.80;37.40;;;;;;6128931;28;80392;-63
2023/04/07 00:11:40;;;;;;;11.63;7.40;;;21.90;37.40;;;;;;6127907;28;82274;-64
2023/04/07 00:14:40;;;;;;;11.48;7.82;;;21.90;37.30;;;;;;6128578;28;80653;-64
2023/04/07 00:17:41;;;;;;;10.70;6.63;;;21.90;37.30;;;;;;6109707;28;80613;-63
2023/04/07 00:20:41;;;;;;;10.38;7.20;;;21.80;37.30;;;;;;6128101;28;80690;-62
2023/04/07 00:23:42;;;;;;;9.70;7.18;;;21.80;37.10;;;;;;6126988;28;80628;-62
2023/04/07 00:26:42;;;;;;;9.73;7.05;;;21.80;37.10;;;;;;6127602;28;80700;-62
2023/04/07 00:29:45;;;;;;;11.02;7.25;;;21.80;37.40;;;;;;6121369;28;80930;-67
2023/04/07 00:32:46;;;;;;;10.93;7.22;;;21.90;37.30;;;;;;6128991;28;80599;-66
2023/04/07 00:35:47;;;;;;;11.63;6.80;;;21.80;37.40;;;;;;6110848;28;83173;-67
2023/04/07 00:38:47;;;;;;;11.63;7.25;;;21.80;37.20;;;;;;6109504;28;82714;-66
2023/04/07 00:41:48;;;;;;;11.40;7.05;;;21.80;37.50;;;;;;6127355;28;83660;-66
2023/04/07 00:44:48;;;;;;;9.80;7.90;;;21.80;37.50;;;;;;6127326;28;80635;-67
2023/04/07 00:47:49;;;;;;;8.45;6.85;;;21.80;37.20;;;;;;6127437;28;80658;-63
2023/04/07 00:50:49;;;;;;;8.65;6.60;;;21.90;37.40;;;;;;6124943;28;81252;-62
2023/04/07 00:53:50;;;;;;;9.77;6.78;;;21.80;37.40;;;;;;6120271;28;82183;-68
2023/04/07 00:56:50;;;;;;;11.05;7.53;;;21.90;37.50;;;;;;6127558;28;80817;-67
2023/04/07 00:59:51;;;;;;;10.52;7.18;;;21.80;37.50;;;;;;6110931;28;82964;-68
2023/04/07 01:02:51;;;;;;;12.25;7.03;;;21.80;37.90;;;;;;6128244;28;80925;-68
2023/04/07 01:05:52;;;;;;;11.32;7.43;;;21.80;38.00;;;;;;6127425;28;81078;-65
2023/04/07 01:08:53;;;;;;;12.60;7.30;;;21.80;37.80;;;;;;6109379;28;81872;-63
2023/04/07 01:11:54;;;;;;;9.63;6.70;;;21.90;37.40;;;;;;6109499;28;83303;-65
2023/04/07 01:14:55;;;;;;;13.90;7.43;;;21.90;37.70;;;;;;6109561;28;82257;-65
2023/04/07 01:18:10;;;;;;;9.35;6.85;;;21.90;37.50;;;;;;6110047;28;82303;-65
2023/04/07 01:21:10;;;;;;;9.82;7.20;;;21.90;37.70;;;;;;6128285;28;80824;-65
2023/04/07 01:24:11;;;;;;;9.30;6.70;;;21.90;37.80;;;;;;6126515;28;80001;-62
2023/04/07 01:27:12;;;;;;;9.85;7.03;;;21.90;37.70;;;;;;6126653;28;80440;-62
2023/04/07 01:30:12;;;;;;;10.00;6.70;;;21.80;38.10;;;;;;6120770;28;80678;-63
2023/04/07 01:33:13;;;;;;;9.00;7.03;;;21.80;38.10;;;;;;6126960;28;82960;-63
2023/04/07 01:36:13;;;;;;;11.50;7.00;;;21.90;38.20;;;;;;6119047;28;80597;-61
2023/04/07 01:39:14;;;;;;;11.93;7.78;;;21.80;38.20;;;;;;6127300;28;80822;-61
2023/04/07 01:42:14;;;;;;;11.23;7.07;;;21.80;38.10;;;;;;6108021;28;81961;-60
2023/04/07 01:45:15;;;;;;;9.00;6.18;;;21.80;37.90;;;;;;6126892;28;81692;-63
2023/04/07 01:48:16;;;;;;;10.45;7.38;;;21.80;37.90;;;;;;6108745;28;82568;-62
2023/04/07 01:51:17;;;;;;;11.98;8.07;;;21.80;37.70;;;;;;6108789;28;81789;-62
2023/04/07 01:54:18;;;;;;;10.70;6.90;;;21.80;37.80;;;;;;6126350;28;81430;-61
2023/04/07 01:57:18;;;;;;;10.60;7.55;;;21.80;38.00;;;;;;6107700;28;82849;-62
2023/04/07 02:00:20;;;;;;;10.73;7.05;;;21.80;37.90;;;;;;6108359;28;81933;-68
2023/04/07 02:03:25;;;;;;;8.90;6.53;;;21.80;38.10;;;;;;6127002;28;83101;-67
2023/04/07 02:06:26;;;;;;;10.60;7.07;;;21.80;37.90;;;;;;6108373;28;82929;-66
2023/04/07 02:09:27;;;;;;;9.43;6.65;;;21.80;38.00;;;;;;6121050;28;81544;-67
2023/04/07 02:12:27;;;;;;;10.45;6.80;;;21.80;37.90;;;;;;6126290;28;80666;-65
2023/04/07 02:15:37;;;;;;;10.60;6.82;;;21.80;38.00;;;;;;6110226;28;81838;-68
2023/04/07 02:18:38;;;;;;;9.73;6.53;;;21.90;37.60;;;;;;6126530;28;80374;-62
2023/04/07 02:21:38;;;;;;;8.68;6.38;;;21.80;37.70;;;;;;6111032;28;83080;-62
2023/04/07 02:24:39;;;;;;;9.85;6.57;;;21.80;37.70;;;;;;6130570;28;80362;-61
2023/04/07 02:27:40;;;;;;;9.18;6.70;;;21.80;37.70;;;;;;6113385;28;83587;-63
2023/04/07 02:30:40;;;;;;;9.05;6.93;;;21.80;37.80;;;;;;6126066;28;80653;-63
2023/04/07 02:33:41;;;;;;;10.48;7.00;;;21.80;37.70;;;;;;6112475;28;82400;-63
2023/04/07 02:36:41;;;;;;;8.73;6.45;;;21.80;37.80;;;;;;6129767;28;81180;-62
2023/04/07 02:39:42;;;;;;;9.98;7.00;;;21.80;38.00;;;;;;6130269;28;81834;-64
2023/04/07 02:42:42;;;;;;;9.90;6.35;;;21.80;38.20;;;;;;6129857;28;82405;-64
2023/04/07 02:45:43;;;;;;;8.48;6.32;;;21.80;39.10;;;;;;6129436;28;81055;-61
2023/04/07 02:48:43;;;;;;;9.10;6.47;;;21.80;38.10;;;;;;6130908;28;81290;-62
2023/04/07 02:51:45;;;;;;;9.07;6.72;;;21.80;38.20;;;;;;6130326;28;82448;-63
2023/04/07 02:54:46;;;;;;;9.15;6.60;;;21.80;38.30;;;;;;6070702;28;83215;-64
2023/04/07 02:57:47;;;;;;;8.52;6.60;;;21.90;38.40;;;;;;6097195;28;82974;-63
2023/04/07 03:01:06;;;;;;;9.52;6.97;;;21.80;38.00;;;;;;6116715;28;80275;-62
2023/04/07 03:04:08;;;;;;;9.30;6.82;;;21.80;38.20;;;;;;6086605;28;82274;-62
2023/04/07 03:07:09;;;;;;;11.00;7.03;;;21.80;38.20;;;;;;6105389;28;80904;-64
2023/04/07 03:10:09;;;;;;;11.18;6.80;;;21.80;38.30;;;;;;6088515;28;82391;-64
2023/04/07 03:13:15;;;;;;;11.07;7.10;;;21.90;37.60;;;;;;6105215;28;82101;-64
2023/04/07 03:16:15;;;;;;;10.87;7.47;;;21.90;37.30;;;;;;6089187;28;83546;-68
2023/04/07 03:19:29;;;;;;;10.98;7.95;;;22.00;37.20;;;;;;6088723;28;82947;-71
2023/04/07 03:22:30;;;;;;;11.70;8.60;;;22.00;37.20;;;;;;6093502;28;83584;-66
2023/04/07 03:25:31;;;;;;;10.10;7.82;;;22.10;37.20;;;;;;6104061;28;80789;-65
2023/04/07 03:28:32;;;;;;;11.60;7.68;;;22.20;37.30;;;;;;6085802;28;82020;-66
2023/04/07 03:31:34;;;;;;;13.68;7.93;;;22.20;37.20;;;;;;6081729;28;82280;-67
2023/04/07 03:34:35;;;;;;;10.13;7.45;;;22.20;37.10;;;;;;6084479;28;83211;-64
2023/04/07 03:37:35;;;;;;;10.82;7.57;;;22.30;37.10;;;;;;6084308;28;83308;-65
2023/04/07 03:40:36;;;;;;;10.43;7.53;;;22.30;37.10;;;;;;6085601;28;80748;-64
2023/04/07 03:43:37;;;;;;;11.13;7.95;;;22.30;37.60;;;;;;6104855;28;81131;-64
2023/04/07 03:46:37;;;;;;;10.40;7.65;;;22.40;36.90;;;;;;6087215;28;82086;-64
2023/04/07 03:49:38;;;;;;;10.55;7.78;;;22.40;36.80;;;;;;6104496;28;84488;-60
2023/04/07 03:52:40;;;;;;;9.70;7.47;;;22.40;36.80;;;;;;6079896;28;81521;-62
2023/04/07 03:55:52;;;;;;;10.23;7.28;;;22.50;36.80;;;;;;6105813;28;83502;-60
2023/04/07 03:59:11;;;;;;;10.52;8.50;;;22.50;36.80;;;;;;6088896;28;81535;-61
2023/04/07 04:02:23;;;;;;;10.18;7.82;;;22.50;36.60;;;;;;6085521;28;80806;-62
2023/04/07 04:05:26;;;;;;;10.02;7.10;;;22.50;36.50;;;;;;6099058;28;80790;-64
2023/04/07 04:08:26;;;;;;;11.15;7.88;;;22.50;36.60;;;;;;6103612;28;80424;-73
2023/04/07 04:11:27;;;;;;;10.20;7.53;;;22.60;36.60;;;;;;6103406;28;80696;-71
2023/04/07 04:14:34;;;;;;;11.73;7.75;;;22.60;36.70;;;;;;6116177;28;88093;-77
2023/04/07 04:17:37;;;;;;;12.20;7.90;;;22.60;36.50;;;;;;6110135;28;83408;-68
2023/04/07 04:20:39;;;;;;;14.57;8.57;;;22.60;36.60;;;;;;6089455;28;83448;-64
2023/04/07 04:23:41;;;;;;;10.05;7.82;;;22.60;36.70;;;;;;6097774;28;84315;-65
2023/04/07 04:26:41;;;;;;;12.85;7.90;;;22.60;36.60;;;;;;6127254;28;80944;-64
2023/04/07 04:29:45;;;;;;;11.65;8.40;;;22.60;36.40;;;;;;6092063;28;83296;-72
2023/04/07 04:32:49;;;;;;;10.60;8.18;;;22.60;36.20;;;;;;6109908;28;83060;-71
2023/04/07 04:35:52;;;;;;;14.02;9.23;;;22.60;36.10;;;;;;6108157;28;82975;-70
2023/04/07 04:38:54;;;;;;;11.68;8.05;;;22.60;36.00;;;;;;6109103;28;83416;-69
2023/04/07 04:41:56;;;;;;;13.23;8.43;;;22.60;36.50;;;;;;6110421;28;83267;-70
2023/04/07 04:45:03;;;;;;;12.23;8.40;;;22.60;35.70;;;;;;6112563;28;81965;-72
2023/04/07 04:48:05;;;;;;;14.15;9.73;;;22.60;35.60;;;;;;6110396;28;82732;-64
2023/04/07 04:51:06;;;;;;;14.52;9.60;;;22.60;35.70;;;;;;6096891;28;83517;-64
2023/04/07 04:54:07;;;;;;;10.25;8.38;;;22.60;35.80;;;;;;6111499;28;82525;-66
2023/04/07 04:57:08;;;;;;;15.13;9.13;;;22.70;37.30;;;;;;6108287;28;83236;-65
2023/04/07 05:00:10;;;;;;;12.45;8.40;;;22.70;36.30;;;;;;6093713;28;82908;-59
2023/04/07 05:03:12;;;;;;;11.45;8.02;;;22.80;36.10;;;;;;6112311;28;82657;-61
2023/04/07 05:06:16;;;;;;;14.57;8.80;;;22.80;35.90;;;;;;6098275;28;83414;-64
2023/04/07 05:09:18;;;;;;;13.25;9.10;;;22.80;35.90;;;;;;6097740;28;82326;-70
2023/04/07 05:12:21;;;;;;;11.88;8.23;;;22.80;36.20;;;;;;6081577;28;83266;-71
2023/04/07 05:15:28;;;;;;;14.35;8.75;;;22.80;36.20;;;;;;6105187;28;82559;-69
2023/04/07 05:18:29;;;;;;;12.48;8.80;;;22.80;36.00;;;;;;6100884;28;82928;-69
2023/04/07 05:21:31;;;;;;;12.05;8.52;;;22.70;36.30;;;;;;6101371;28;80722;-69
2023/04/07 05:24:37;;;;;;;13.77;8.77;;;22.70;36.80;;;;;;6100074;28;83437;-69
2023/04/07 05:27:37;;;;;;;13.18;8.65;;;22.70;36.60;;;;;;6105125;28;83809;-74
2023/04/07 05:30:44;;;;;;;11.98;8.90;;;22.70;36.70;;;;;;6122365;28;83314;-70
2023/04/07 05:33:45;;;;;;;11.27;8.35;;;22.70;36.90;;;;;;6145674;28;82825;-72
2023/04/07 05:36:45;;;;;;;10.35;7.82;;;22.60;36.80;;;;;;6144144;28;83304;-74
2023/04/07 05:39:46;;;;;;;10.43;7.90;;;22.60;37.10;;;;;;6132324;28;81157;-67
2023/04/07 05:42:48;;;;;;;12.63;7.80;;;22.60;36.80;;;;;;6141915;28;82857;-73
2023/04/07 05:45:49;;;;;;;11.63;7.80;;;22.60;37.00;;;;;;6147323;28;85235;-72
2023/04/07 05:48:50;;;;;;;13.38;8.00;;;22.50;37.50;;;;;;6147461;28;83897;-68
2023/04/07 05:51:52;;;;;;;13.27;7.82;;;22.50;37.60;;;;;;6150049;28;81689;-70
2023/04/07 05:54:53;;;;;;;11.45;8.07;;;22.50;37.50;;;;;;6142725;28;83573;-66
2023/04/07 05:57:54;;;;;;;14.80;8.15;;;22.50;37.60;;;;;;6042929;28;83110;-68
2023/04/07 06:00:57;;;;;;;12.63;8.05;;;22.50;37.60;;;;;;6002196;28;83491;-71
2023/04/07 06:03:58;;;;;;;16.63;8.48;;;22.50;37.80;;;;;;6149442;28;80455;-67
2023/04/07 06:07:00;;;;;;;11.63;8.50;;;22.50;37.70;;;;;;6142335;28;83692;-73
2023/04/07 06:10:00;;;;;;;19.33;8.95;;;22.50;37.60;;;;;;6143378;28;81871;-70
2023/04/07 06:13:01;;;;;;;12.95;8.32;;;22.40;37.70;;;;;;6142732;28;83347;-71
2023/04/07 06:16:01;;;;;;;18.98;8.55;;;22.40;37.70;;;;;;6147734;28;83568;-67
2023/04/07 06:19:02;;;;;;;12.40;8.52;;;22.40;37.90;;;;;;6137148;28;83229;-70
2023/04/07 06:22:03;;;;;;;12.52;7.38;;;22.30;37.40;;;;;;6148481;28;85391;-70
2023/04/07 06:25:05;;;;;;;11.10;8.27;;;22.40;37.60;;;;;;6150029;28;80617;-70
2023/04/07 06:28:06;;;;;;;10.88;8.32;;;22.30;37.60;;;;;;6153232;28;81338;-69
2023/04/07 06:31:07;;;;;;;14.93;9.02;;;22.30;37.60;;;;;;6117507;28;83872;-68
2023/04/07 06:34:09;;;;;;;11.60;8.63;;;22.30;38.00;;;;;;6122961;28;89344;-71
2023/04/07 06:37:09;;;;;;;15.38;8.00;;;22.30;38.30;;;;;;6129755;28;85014;-70
2023/04/07 06:40:10;;;;;;;12.05;8.38;;;22.30;38.20;;;;;;6130645;28;81472;-67
2023/04/07 06:43:10;;;;;;;13.93;8.77;;;22.30;38.40;;;;;;6146740;28;82053;-70
2023/04/07 06:46:15;;;;;;;13.10;8.93;;;22.30;38.60;;;;;;6130771;28;83541;-70
2023/04/07 06:49:16;;;;;;;13.85;8.02;;;22.30;38.40;;;;;;6144505;28;81108;-71
2023/04/07 06:52:16;;;;;;;12.55;8.07;;;22.30;38.40;;;;;;6141070;28;81610;-70
2023/04/07 06:55:17;;;;;;;14.50;8.43;;;22.20;38.30;;;;;;6152573;28;85289;-63
2023/04/07 06:58:17;;;;;;;14.05;8.10;;;22.20;38.40;;;;;;6150783;28;80962;-65
2023/04/07 07:01:18;;;;;;;11.98;7.65;;;22.20;38.50;;;;;;6150703;28;80749;-65
2023/04/07 07:04:18;;;;;;;18.17;8.43;;;22.20;38.70;;;;;;6146761;28;84383;-66
2023/04/07 07:07:19;;;;;;;12.25;7.55;;;22.20;38.50;;;;;;6125594;28;81963;-66
2023/04/07 07:10:21;;;;;;;12.73;8.18;;;22.20;38.40;;;;;;6141949;28;83653;-66
2023/04/07 07:13:27;;;;;;;11.57;7.88;;;22.20;38.30;;;;;;6149589;28;81279;-69
2023/04/07 07:16:28;;;;;;;10.40;7.15;;;22.20;38.30;;;;;;6147223;28;83786;-60
2023/04/07 07:19:28;;;;;;;11.20;7.32;;;22.10;38.40;;;;;;6144748;28;80664;-66
2023/04/07 07:22:29;;;;;;;10.07;7.40;;;22.10;38.60;;;;;;6147748;28;80857;-76
2023/04/07 07:25:30;;;;;;;9.43;6.88;;;22.10;38.50;;;;;;6135660;28;82126;-66
2023/04/07 07:28:30;;;;;;;11.90;7.13;;;22.10;38.90;;;;;;6143976;28;81448;-69
2023/04/07 07:31:31;;;;;;;15.88;8.50;;;22.20;39.10;;;;;;6148042;28;81007;-68
2023/04/07 07:34:31;;;;;;;11.68;7.40;;;22.10;39.10;;;;;;6150078;28;85385;-79
2023/04/07 07:37:32;;;;;;;11.68;7.75;;;22.20;39.30;;;;;;6106582;28;81238;-67
2023/04/07 07:40:32;;;;;;;12.23;8.40;;;22.20;38.70;;;;;;6131639;28;84450;-66
2023/04/07 07:43:33;;;;;;;12.90;7.97;;;22.20;38.50;;;;;;6149934;28;81758;-70
2023/04/07 07:46:33;;;;;;;13.10;8.07;;;22.30;38.50;;;;;;6150093;28;80437;-67
2023/04/07 07:49:34;;;;;;;13.38;8.60;;;22.40;38.40;;;;;;6144026;28;81305;-70
2023/04/07 07:52:34;;;;;;;12.30;7.75;;;22.40;38.20;;;;;;6150891;28;80807;-69
2023/04/07 07:55:35;;;;;;;11.80;7.63;;;22.40;38.70;;;;;;6145105;28;80777;-70
2023/04/07 07:58:35;;;;;;;13.52;8.70;;;22.50;38.00;;;;;;6143302;28;80912;-66
2023/04/07 08:01:36;;;;;;;12.18;8.27;;;22.50;37.90;;;;;;6134691;28;82588;-68
2023/04/07 08:04:36;;;;;;;12.23;8.35;;;22.50;37.70;;;;;;6154677;28;81502;-69
2023/04/07 08:07:37;;;;;;;13.35;8.80;;;22.60;37.60;;;;;;6153584;28;80870;-69
2023/04/07 08:10:37;;;;;;;13.18;8.35;;;22.60;37.60;;;;;;6151646;28;80919;-70
2023/04/07 08:13:38;;;;;;;14.27;8.73;;;22.70;37.50;;;;;;6152630;28;81256;-72
2023/04/07 08:16:39;;;;;;;17.83;9.05;;;22.70;37.60;;;;;;6150151;28;80211;-70
2023/04/07 08:19:39;;;;;;;16.98;8.57;;;22.70;37.60;;;;;;6151646;28;80880;-69
2023/04/07 08:22:41;;;;;;;15.32;8.77;;;22.70;37.50;;;;;;6152699;28;80451;-70
2023/04/07 08:25:42;;;;;;;15.18;9.45;;;22.80;37.40;;;;;;6152277;28;80806;-62
2023/04/07 08:28:42;;;;;;;15.05;9.38;;;22.80;37.40;;;;;;6149498;28;82272;-63
2023/04/07 08:31:43;;;;;;;11.52;8.60;;;22.80;37.30;;;;;;6147669;28;80854;-62
2023/04/07 08:34:43;;;;;;;11.43;8.85;;;22.80;37.50;;;;;;6145600;28;84261;-63
2023/04/07 08:37:44;;;;;;;14.13;8.55;;;22.80;37.40;;;;;;6132798;28;80587;-66
2023/04/07 08:40:44;;;;;;;13.32;8.57;;;22.80;37.60;;;;;;6130349;28;83208;-62
2023/04/07 08:43:45;;;;;;;12.60;8.35;;;22.80;37.40;;;;;;6143099;28;83856;-63
2023/04/07 08:46:46;;;;;;;11.10;7.75;;;22.80;37.20;;;;;;6145609;28;80548;-71
2023/04/07 08:49:46;;;;;;;12.48;7.80;;;22.90;37.10;;;;;;6145349;28;80459;-69
2023/04/07 08:52:47;;;;;;;13.23;8.48;;;22.90;36.90;;;;;;6145536;28;80891;-67
2023/04/07 08:55:47;;;;;;;15.55;8.50;;;22.90;36.90;;;;;;6146490;28;85260;-61
2023/04/07 08:58:48;;;;;;;14.27;8.85;;;22.90;37.00;;;;;;6141442;28;81730;-66
2023/04/07 09:01:49;;;;;;;15.10;8.95;;;22.90;37.40;;;;;;6149630;28;83258;-71
2023/04/07 09:04:49;;;;;;;18.45;8.98;;;22.90;39.50;;;;;;6147287;28;81585;-66
2023/04/07 09:07:50;;;;;;;16.95;9.90;;;23.00;40.90;;;;;;6149835;28;81722;-66
2023/04/07 09:10:50;;;;;;;16.55;9.82;;;23.00;42.50;;;;;;6148405;28;80405;-65
2023/04/07 09:13:51;;;;;;;18.63;9.93;;;23.00;43.40;;;;;;6138388;28;80882;-63
2023/04/07 09:16:51;;;;;;;16.90;10.68;;;23.00;43.80;;;;;;6138466;28;80761;-62
2023/04/07 09:19:52;;;;;;;21.13;10.77;;;23.10;43.80;;;;;;6141177;28;84335;-66
2023/04/07 09:22:53;;;;;;;27.38;12.07;;;23.00;43.10;;;;;;6147228;28;83073;-63
2023/04/07 09:25:53;;;;;;;17.83;10.05;;;23.00;42.90;;;;;;6141711;28;90225;-62
2023/04/07 09:28:54;;;;;;;19.27;10.30;;;23.00;42.00;;;;;;6138459;28;86115;-63
2023/04/07 09:31:56;;;;;;;21.50;10.38;;;23.00;41.60;;;;;;6147721;28;83422;-64
2023/04/07 09:34:57;;;;;;;18.98;10.32;;;23.00;41.50;;;;;;6120577;28;84004;-64
2023/04/07 09:37:57;;;;;;;17.55;10.25;;;22.90;41.20;;;;;;6147257;28;86514;-62
2023/04/07 09:40:58;;;;;;;18.60;9.80;;;22.90;41.00;;;;;;6142515;28;83773;-60
2023/04/07 09:43:58;;;;;;;21.73;9.23;;;22.90;40.90;;;;;;6147802;28;83194;-68
2023/04/07 09:46:59;;;;;;;17.48;9.23;;;22.90;40.80;;;;;;6117330;28;83129;-63
2023/04/07 09:50:05;;;;;;;19.25;9.68;;;22.90;40.80;;;;;;6149842;28;80670;-62
2023/04/07 09:53:06;;;;;;;14.52;8.13;;;22.90;40.60;;;;;;6150670;28;85530;-63
2023/04/07 09:56:06;;;;;;;16.23;8.73;;;22.80;40.10;;;;;;6154845;28;81583;-61
2023/04/07 09:59:08;;;;;;;15.13;8.18;;;22.80;39.90;;;;;;6099696;28;82309;-69
2023/04/07 10:02:08;;;;;;;12.55;8.02;;;22.80;39.90;;;;;;6123768;28;81660;-70
2023/04/07 10:05:09;;;;;;;13.88;8.68;;;22.80;39.70;;;;;;6150260;28;81165;-65
2023/04/07 10:08:09;;;;;;;13.30;7.47;;;22.80;39.60;;;;;;6153442;28;82296;-67
2023/04/07 10:11:10;;;;;;;13.90;8.93;;;22.80;39.60;;;;;;6151168;28;85576;-68
2023/04/07 10:14:11;;;;;;;13.10;8.52;;;22.80;39.70;;;;;;6153306;28;82001;-69
2023/04/07 10:17:13;;;;;;;11.80;7.45;;;22.70;39.60;;;;;;6151029;28;81002;-64
2023/04/07 10:20:14;;;;;;;11.65;7.90;;;22.70;39.40;;;;;;6152054;28;85665;-66
2023/04/07 10:23:15;;;;;;;13.00;7.85;;;22.70;39.40;;;;;;6124153;28;81726;-66
2023/04/07 10:26:16;;;;;;;9.38;6.88;;;22.60;38.90;;;;;;6123604;28;81149;-65
2023/04/07 10:29:18;;;;;;;13.48;8.02;;;22.60;38.90;;;;;;6123361;28;80359;-67
2023/04/07 10:32:19;;;;;;;11.10;7.85;;;22.60;38.80;;;;;;6119514;28;80899;-66
2023/04/07 10:35:20;;;;;;;10.02;7.15;;;22.60;38.70;;;;;;6125567;28;80688;-68
2023/04/07 10:38:21;;;;;;;11.25;7.75;;;22.50;38.50;;;;;;6082360;28;82189;-68
2023/04/07 10:41:21;;;;;;;11.45;7.25;;;22.50;38.40;;;;;;6120322;28;82435;-70
2023/04/07 10:44:23;;;;;;;11.70;7.03;;;22.50;38.40;;;;;;6113696;28;82435;-67
2023/04/07 10:47:23;;;;;;;10.35;7.20;;;22.50;38.50;;;;;;6129745;28;80754;-68
2023/04/07 10:50:24;;;;;;;11.23;7.75;;;22.50;38.50;;;;;;6128179;28;80690;-69
2023/04/07 10:53:25;;;;;;;11.05;7.18;;;22.50;38.50;;;;;;6125086;28;81330;-63
2023/04/07 10:56:26;;;;;;;10.32;6.88;;;22.50;38.60;;;;;;6126662;28;81740;-63
2023/04/07 10:59:27;;;;;;;10.35;7.10;;;22.50;38.70;;;;;;6125019;28;85618;-61
2023/04/07 11:02:28;;;;;;;10.57;7.22;;;22.40;38.80;;;;;;6127452;28;82668;-61
2023/04/07 11:05:29;;;;;;;11.13;7.15;;;22.40;38.80;;;;;;6123439;28;85357;-61
2023/04/07 11:08:29;;;;;;;9.48;6.57;;;22.40;38.80;;;;;;6092963;28;81751;-61
2023/04/07 11:11:30;;;;;;;11.45;7.65;;;22.50;38.90;;;;;;6106995;28;80153;-64
2023/04/07 11:14:31;;;;;;;10.75;7.30;;;22.50;38.70;;;;;;6126625;28;81455;-63
2023/04/07 11:17:32;;;;;;;8.82;6.50;;;22.50;38.80;;;;;;6093851;28;80678;-65
2023/04/07 11:20:32;;;;;;;10.80;6.95;;;22.50;38.70;;;;;;6115424;28;82644;-65
2023/04/07 11:23:33;;;;;;;11.15;7.20;;;22.50;38.70;;;;;;6127206;28;80835;-64
2023/04/07 11:26:33;;;;;;;11.73;7.20;;;22.50;38.60;;;;;;6113825;28;82883;-63
2023/04/07 11:29:34;;;;;;;8.52;6.47;;;22.60;38.40;;;;;;6129934;28;80923;-65
2023/04/07 11:32:34;;;;;;;11.65;7.18;;;22.60;38.20;;;;;;6122463;28;82252;-67
2023/04/07 11:35:35;;;;;;;11.48;7.32;;;22.60;38.00;;;;;;6104716;28;86359;-60
2023/04/07 11:38:36;;;;;;;11.07;7.38;;;22.60;37.80;;;;;;6107587;28;81087;-63
2023/04/07 11:41:37;;;;;;;10.55;7.32;;;22.70;37.70;;;;;;6150993;28;80861;-63
2023/04/07 11:44:38;;;;;;;12.95;7.65;;;22.70;37.60;;;;;;6151834;28;80501;-65
2023/04/07 11:47:38;;;;;;;10.95;6.80;;;22.70;37.50;;;;;;6150990;28;80785;-64
2023/04/07 11:50:39;;;;;;;9.73;7.40;;;22.80;37.50;;;;;;6153183;28;80278;-64
2023/04/07 11:53:40;;;;;;;8.20;6.75;;;22.80;37.50;;;;;;6153112;28;80439;-65
2023/04/07 11:56:40;;;;;;;9.45;6.82;;;22.80;37.30;;;;;;6152372;28;81617;-64
2023/04/07 11:59:41;;;;;;;9.90;6.80;;;22.80;37.40;;;;;;6152873;28;80857;-65
2023/04/07 12:02:41;;;;;;;14.27;6.55;;;22.90;37.70;;;;;;6113097;28;82085;-64
2023/04/07 12:05:42;;;;;;;10.10;7.55;;;22.90;37.80;;;;;;6149354;28;80489;-64
2023/04/07 12:08:43;;;;;;;9.05;6.82;;;22.90;37.80;;;;;;6150858;28;81023;-67
2023/04/07 12:11:43;;;;;;;11.50;7.22;;;22.90;37.70;;;;;;6151156;28;81106;-64
2023/04/07 12:14:51;;;;;;;12.55;7.03;;;22.90;37.30;;;;;;6236531;27;76194;-65
2023/04/07 12:17:51;;;;;;;13.50;7.10;;;22.90;37.50;;;;;;6173195;28;80123;-64
2023/04/07 12:20:52;;;;;;;11.15;7.25;;;22.90;37.50;;;;;;6172440;28;81376;-64
2023/04/07 12:23:52;;;;;;;8.98;6.50;;;22.90;37.30;;;;;;6171100;28;80654;-65
2023/04/07 12:26:53;;;;;;;9.50;6.70;;;23.00;37.50;;;;;;6171382;28;81778;-63
2023/04/07 12:29:53;;;;;;;9.57;6.07;;;23.00;37.60;;;;;;6168532;28;80047;-62
2023/04/07 12:32:54;;;;;;;8.55;6.55;;;23.00;37.80;;;;;;6172691;28;80486;-65
2023/04/07 12:35:54;;;;;;;10.63;7.25;;;23.00;37.80;;;;;;6172127;28;85498;-63
2023/04/07 12:38:55;;;;;;;9.43;6.25;;;23.00;37.90;;;;;;6170997;28;80715;-66
2023/04/07 12:41:57;;;;;;;10.25;6.90;;;23.00;37.80;;;;;;6172043;28;82122;-63
2023/04/07 12:44:57;;;;;;;11.65;6.50;;;23.00;37.70;;;;;;6170690;28;80814;-71
2023/04/07 12:47:58;;;;;;;13.13;7.45;;;23.00;37.70;;;;;;6171515;28;81955;-74
2023/04/07 12:50:58;;;;;;;12.35;7.65;;;23.00;37.60;;;;;;6186976;28;87027;-75
2023/04/07 12:54:02;;;;;;;15.95;7.93;;;23.00;37.50;;;;;;6171085;28;81337;-76
2023/04/07 12:57:02;;;;;;;12.50;7.47;;;23.00;37.40;;;;;;6172129;28;80268;-77
2023/04/07 13:00:03;;;;;;;14.23;7.72;;;23.00;37.30;;;;;;6171437;28;80837;-75
2023/04/07 13:03:03;;;;;;;10.48;7.47;;;23.00;37.20;;;;;;6174398;28;80288;-67
2023/04/07 13:06:04;;;;;;;12.55;8.35;;;23.00;37.10;;;;;;6170553;28;82005;-65
2023/04/07 13:09:04;;;;;;;11.85;8.38;;;23.00;37.10;;;;;;6171776;28;80864;-66
2023/04/07 13:12:05;;;;;;;10.85;7.38;;;23.00;37.10;;;;;;6170334;28;80174;-65
2023/04/07 13:15:06;;;;;;;11.30;7.82;;;23.00;37.00;;;;;;6143825;28;88002;-66
2023/04/07 13:18:07;;;;;;;10.75;8.05;;;22.90;37.10;;;;;;6160237;28;84831;-69
2023/04/07 13:21:07;;;;;;;13.63;9.32;;;22.80;37.20;;;;;;6169030;28;81038;-66
2023/04/07 13:24:08;;;;;;;11.18;8.05;;;22.70;37.30;;;;;;6161195;28;86640;-66
2023/04/07 13:27:09;;;;;;;12.60;8.60;;;22.70;38.20;;;;;;6149138;28;82224;-66
2023/04/07 13:30:10;;;;;;;12.82;8.63;;;22.70;38.10;;;;;;6144998;28;85189;-63
2023/04/07 13:33:10;;;;;;;10.98;8.45;;;22.60;37.90;;;;;;6149688;28;81316;-63
2023/04/07 13:36:11;;;;;;;10.45;7.70;;;22.50;37.90;;;;;;6149865;28;80765;-61
2023/04/07 13:39:12;;;;;;;27.23;10.27;;;22.50;37.90;;;;;;6149360;28;80809;-66
2023/04/07 13:42:15;;;;;;;14.90;8.05;;;22.50;38.10;;;;;;6147090;28;85719;-67
2023/04/07 13:45:16;;;;;;;18.98;9.05;;;22.40;38.30;;;;;;6143592;28;84340;-68
2023/04/07 13:48:16;;;;;;;12.13;8.30;;;22.40;38.60;;;;;;6147652;28;80835;-68
2023/04/07 13:51:17;;;;;;;13.52;8.80;;;22.40;38.60;;;;;;6149108;28;85460;-66
2023/04/07 13:54:17;;;;;;;13.02;8.85;;;22.30;38.60;;;;;;6143917;28;80862;-67
2023/04/07 13:57:19;;;;;;;14.45;7.75;;;22.40;38.70;;;;;;6150885;28;80132;-68
2023/04/07 14:00:20;;;;;;;12.85;8.70;;;22.30;38.80;;;;;;6149530;28;81077;-69
2023/04/07 14:03:21;;;;;;;12.95;8.80;;;22.30;39.00;;;;;;6140215;28;82830;-69
2023/04/07 14:06:21;;;;;;;15.75;7.80;;;22.30;39.00;;;;;;6148874;28;80567;-71
2023/04/07 14:09:22;;;;;;;11.27;7.57;;;22.30;39.20;;;;;;6150956;28;82103;-68
2023/04/07 14:12:23;;;;;;;12.38;8.07;;;22.30;39.40;;;;;;6149792;28;81745;-67
2023/04/07 14:15:23;;;;;;;10.80;7.20;;;22.30;39.50;;;;;;6145502;28;81329;-63
2023/04/07 14:18:24;;;;;;;18.13;7.85;;;22.40;39.30;;;;;;6139856;28;83165;-71
2023/04/07 14:21:26;;;;;;;9.52;7.07;;;22.40;39.30;;;;;;6152644;28;80927;-70
2023/04/07 14:24:27;;;;;;;13.68;7.60;;;22.40;39.40;;;;;;6155182;28;80348;-70
2023/04/07 14:27:29;;;;;;;11.85;7.43;;;22.40;39.20;;;;;;6154250;28;83347;-70
2023/04/07 14:30:30;;;;;;;11.52;7.47;;;22.40;39.10;;;;;;6152614;28;83259;-69
2023/04/07 14:33:30;;;;;;;11.90;7.32;;;22.50;39.30;;;;;;6155038;28;81518;-67
2023/04/07 14:36:31;;;;;;;10.45;7.38;;;22.50;39.40;;;;;;6152565;28;80274;-67
2023/04/07 14:39:32;;;;;;;10.30;7.25;;;22.40;39.30;;;;;;6152979;28;80952;-67
2023/04/07 14:42:33;;;;;;;13.05;7.65;;;22.40;39.90;;;;;;6154035;28;80604;-64
2023/04/07 14:45:34;;;;;;;12.68;6.85;;;22.50;39.40;;;;;;6143928;28;82892;-60
2023/04/07 14:48:34;;;;;;;10.63;6.93;;;22.50;39.60;;;;;;6123311;28;83423;-66
2023/04/07 14:51:35;;;;;;;10.73;6.78;;;22.50;39.50;;;;;;6129253;28;81529;-69
2023/04/07 14:54:36;;;;;;;10.30;6.63;;;22.50;39.70;;;;;;6146690;28;84209;-63
2023/04/07 14:57:36;;;;;;;10.82;6.57;;;22.60;39.60;;;;;;6148927;28;82490;-62
2023/04/07 15:00:37;;;;;;;10.13;6.47;;;22.50;39.60;;;;;;6142514;28;82393;-66
2023/04/07 15:03:37;;;;;;;9.25;6.80;;;22.50;39.70;;;;;;6148828;28;81918;-64
2023/04/07 15:06:38;;;;;;;11.55;6.38;;;22.50;40.00;;;;;;6146711;28;85254;-61
2023/04/07 15:09:38;;;;;;;13.68;6.07;;;22.50;40.10;;;;;;6144415;28;83201;-67
2023/04/07 15:12:39;;;;;;;11.50;6.43;;;22.50;40.40;;;;;;6151067;28;86839;-68
2023/04/07 15:15:39;;;;;;;8.35;5.90;;;22.50;40.60;;;;;;6151026;28;80389;-66
2023/04/07 15:18:40;;;;;;;12.30;6.22;;;22.60;40.30;;;;;;6144412;28;83517;-63
2023/04/07 15:21:40;;;;;;;12.05;7.03;;;22.60;39.90;;;;;;6147556;28;80480;-66
2023/04/07 15:24:41;;;;;;;9.38;7.03;;;22.60;39.60;;;;;;6146072;28;81196;-66
2023/04/07 15:27:42;;;;;;;9.30;6.45;;;22.70;39.40;;;;;;6149742;28;80841;-67
2023/04/07 15:30:44;;;;;;;11.18;7.35;;;22.70;39.10;;;;;;6149336;28;80460;-61
2023/04/07 15:33:47;;;;;;;13.68;7.32;;;22.70;38.80;;;;;;6152533;28;81143;-63